Bda Praa, Puerto Rico
Current Conditions -  °F | °C
As of 8:53 PM on Friday 28 Nov 2014 (Local Time) from TJNR Reporting Station
Overcast Overcast  
Wind Chill: 76°   Ceiling: 2400
Heat Index: 76°   Visibility: 10mi
Dew Point: 71°   Wind: 0mph
Humidity: 85%   Direction: NA
Pressure: 29.99"   Gusts: NA
Location:  18.1494°N, 65.8294°W
Report Text: TJNR 290053Z AUTO 00000KT 10SM BKN024 OVC033 24/22 A2999 RMK AO2 SLP156 T02440217 $
Loading
Personal Weather Stations






























Interactive Weather Map New forecast layout! Learn more

10-Day Weather Forecast

Advertisements
Track Severe Weather on mobile